Time;durP1;ratioP1;P1;durP2;ratioP2;P2;SDS_P1;SDS_P2;PMS_P1;PMS_P2;Temp;Humidity;BMP_temperature;BMP_pressure;BME280_temperature;BME280_humidity;BME280_pressure;Samples;Min_cycle;Max_cycle;Signal;HPM_P1;HPM_P2
2024/04/18 00:03:23;;;;;;;;;;;17.20;39.70;;;;;;23188916;25;19952;-56
2024/04/18 00:13:25;;;;;;;;;;;17.20;39.70;;;;;;23190005;25;19938;-56
2024/04/18 00:23:26;;;;;;;;;;;17.20;40.00;;;;;;23188937;25;20215;-56
2024/04/18 00:33:27;;;;;;;;;;;17.00;40.20;;;;;;23189259;25;19927;-57
2024/04/18 00:43:28;;;;;;;;;;;16.80;40.40;;;;;;23187376;25;19926;-56
2024/04/18 00:53:29;;;;;;;;;;;16.60;41.00;;;;;;23187674;25;19926;-56
2024/04/18 01:03:30;;;;;;;;;;;16.50;41.20;;;;;;23185119;25;20372;-56
2024/04/18 01:13:36;;;;;;;;;;;16.30;41.40;;;;;;23186042;25;20248;-56
2024/04/18 01:23:37;;;;;;;;;;;16.20;42.00;;;;;;23185274;25;20340;-56
2024/04/18 01:33:39;;;;;;;;;;;16.00;42.10;;;;;;23184355;25;20058;-56
2024/04/18 01:43:41;;;;;;;;;;;16.30;41.50;;;;;;23182487;25;20340;-56
2024/04/18 01:53:42;;;;;;;;;;;15.80;42.90;;;;;;23181314;25;19937;-55
2024/04/18 02:03:43;;;;;;;;;;;16.10;42.00;;;;;;23180199;25;19938;-56
2024/04/18 02:13:45;;;;;;;;;;;15.30;43.60;;;;;;23183738;25;19927;-56
2024/04/18 02:23:46;;;;;;;;;;;15.20;43.90;;;;;;23194683;25;19933;-57
2024/04/18 02:33:47;;;;;;;;;;;15.10;44.30;;;;;;23193810;25;19941;-56
2024/04/18 02:43:52;;;;;;;;;;;15.00;44.80;;;;;;23193452;25;19927;-56
2024/04/18 02:53:54;;;;;;;;;;;14.80;44.90;;;;;;23192313;25;20248;-55
2024/04/18 03:03:55;;;;;;;;;;;14.80;44.50;;;;;;23192067;25;19933;-56
2024/04/18 03:13:56;;;;;;;;;;;14.60;44.80;;;;;;23192659;25;19934;-56
2024/04/18 03:23:58;;;;;;;;;;;14.60;44.50;;;;;;23190779;25;19934;-56
2024/04/18 03:33:59;;;;;;;;;;;14.50;44.80;;;;;;23191046;25;19938;-56
2024/04/18 03:44:01;;;;;;;;;;;14.40;44.80;;;;;;23190062;25;19994;-55
2024/04/18 03:54:02;;;;;;;;;;;14.40;45.00;;;;;;23189917;25;19941;-56
2024/04/18 04:04:03;;;;;;;;;;;14.30;44.80;;;;;;23189258;25;20046;-56
2024/04/18 04:14:07;;;;;;;;;;;14.20;44.80;;;;;;23187444;25;19937;-56
2024/04/18 04:24:08;;;;;;;;;;;14.20;45.30;;;;;;23187329;25;19926;-57
2024/04/18 04:34:12;;;;;;;;;;;14.00;45.60;;;;;;23186641;25;20092;-56
2024/04/18 04:44:13;;;;;;;;;;;13.90;45.40;;;;;;23187270;25;19930;-57
2024/04/18 04:54:14;;;;;;;;;;;13.70;45.10;;;;;;23184128;25;20356;-55
2024/04/18 05:04:15;;;;;;;;;;;13.60;45.30;;;;;;23183158;25;19927;-56
2024/04/18 05:14:17;;;;;;;;;;;13.50;44.90;;;;;;23183738;25;20241;-57
2024/04/18 05:24:18;;;;;;;;;;;13.50;45.10;;;;;;23182870;25;19931;-56
2024/04/18 05:34:20;;;;;;;;;;;13.60;44.40;;;;;;23182180;25;19933;-56
2024/04/18 05:44:23;;;;;;;;;;;13.30;44.70;;;;;;23182386;25;20234;-55
2024/04/18 05:54:24;;;;;;;;;;;13.20;44.50;;;;;;23194228;25;19934;-55
2024/04/18 06:04:26;;;;;;;;;;;13.20;44.60;;;;;;23195094;25;19926;-55
2024/04/18 06:14:27;;;;;;;;;;;13.10;44.50;;;;;;23193727;25;19956;-55
2024/04/18 06:24:29;;;;;;;;;;;13.10;44.90;;;;;;23193700;25;20042;-57
2024/04/18 06:34:30;;;;;;;;;;;13.20;44.50;;;;;;23192553;25;19934;-55
2024/04/18 06:44:33;;;;;;;;;;;13.20;44.80;;;;;;23192326;25;19938;-56
2024/04/18 06:54:34;;;;;;;;;;;13.60;43.90;;;;;;23191493;25;19975;-55
2024/04/18 07:04:35;;;;;;;;;;;13.70;43.10;;;;;;23189282;25;20052;-55
2024/04/18 07:14:37;;;;;;;;;;;14.00;42.80;;;;;;23190078;25;19934;-56
2024/04/18 07:24:38;;;;;;;;;;;14.50;41.60;;;;;;23190000;25;19932;-56
2024/04/18 07:34:39;;;;;;;;;;;14.50;41.10;;;;;;23188815;25;19933;-56
2024/04/18 07:44:41;;;;;;;;;;;14.90;40.10;;;;;;23188328;25;19926;-57
2024/04/18 07:54:44;;;;;;;;;;;15.10;39.70;;;;;;23187265;25;19930;-56
2024/04/18 08:04:45;;;;;;;;;;;15.30;39.50;;;;;;23173351;25;19927;-57
2024/04/18 08:14:47;;;;;;;;;;;15.00;39.70;;;;;;23031098;25;20260;-57
2024/04/18 08:24:49;;;;;;;;;;;15.10;40.00;;;;;;23187887;25;19930;-54
2024/04/18 08:34:52;;;;;;;;;;;15.50;39.70;;;;;;23187619;25;19927;-56
2024/04/18 08:44:55;;;;;;;;;;;15.80;39.40;;;;;;23184726;25;20234;-55
2024/04/18 08:54:58;;;;;;;;;;;16.20;38.40;;;;;;23183984;25;19954;-56
2024/04/18 09:04:59;;;;;;;;;;;16.40;38.00;;;;;;23183434;25;20343;-55
2024/04/18 09:15:05;;;;;;;;;;;16.40;37.70;;;;;;23182847;25;19930;-54
2024/04/18 09:25:09;;;;;;;;;;;16.70;42.40;;;;;;23182633;25;19933;-56
2024/04/18 09:35:12;;;;;;;;;;;17.30;36.00;;;;;;23183101;25;19966;-55
2024/04/18 09:45:16;;;;;;;;;;;16.70;38.80;;;;;;23180809;25;19965;-54
2024/04/18 09:55:18;;;;;;;;;;;17.00;38.20;;;;;;23180380;25;19937;-54
2024/04/18 10:05:19;;;;;;;;;;;17.20;38.70;;;;;;23178926;25;20251;-54
2024/04/18 10:15:23;;;;;;;;;;;;;;;;;;23178070;25;20340;-61
2024/04/18 10:25:25;;;;;;;;;;;;;;;;;;23178373;25;20227;-57
2024/04/18 10:35:27;;;;;;;;;;;;;;;;;;23183563;25;20199;-56
2024/04/18 10:45:29;;;;;;;;;;;;;;;;;;23191501;25;19927;-55
2024/04/18 10:55:32;;;;;;;;;;;;;;;;;;23188533;25;19927;-55
2024/04/18 11:05:34;;;;;;;;;;;;;;;;;;23189218;25;19993;-58
2024/04/18 11:15:36;;;;;;;;;;;;;;;;;;23188608;25;19970;-55
2024/04/18 11:25:37;;;;;;;;;;;;;;;;;;23187791;25;19959;-59
2024/04/18 11:35:39;;;;;;;;;;;;;;;;;;23187646;25;19927;-56
2024/04/18 11:45:41;;;;;;;;;;;;;;;;;;23184479;25;19958;-55
2024/04/18 11:55:44;;;;;;;;;;;;;;;;;;23184396;25;19926;-54
2024/04/18 12:05:46;;;;;;;;;;;;;;;;;;23184534;25;19926;-55
2024/04/18 12:15:47;;;;;;;;;;;;;;;;;;23186319;25;19994;-55
2024/04/18 12:25:51;;;;;;;;;;;;;;;;;;23186857;25;20038;-55
2024/04/18 12:35:52;;;;;;;;;;;;;;;;;;23185581;25;19937;-55
2024/04/18 12:45:57;;;;;;;;;;;;;;;;;;23184718;25;19966;-54
2024/04/18 12:55:59;;;;;;;;;;;;;;;;;;23183720;25;19962;-55
2024/04/18 13:06:01;;;;;;;;;;;;;;;;;;23185217;25;19998;-55
2024/04/18 13:16:02;;;;;;;;;;;;;;;;;;23181799;25;19926;-55
2024/04/18 13:26:04;;;;;;;;;;;;;;;;;;23180120;25;19991;-55
2024/04/18 13:36:07;;;;;;;;;;;;;;;;;;23180807;25;19938;-55
2024/04/18 13:46:10;;;;;;;;;;;;;;;;;;23181042;25;19927;-55
2024/04/18 13:56:11;;;;;;;;;;;;;;;;;;23177906;25;19926;-55
2024/04/18 14:06:14;;;;;;;;;;;;;;;;;;23176510;25;19940;-54
2024/04/18 14:26:38;;;;;;;;;;;;;;;;;;23193279;25;19934;-56
2024/04/18 14:36:40;;;;;;;;;;;;;;;;;;23191137;25;19950;-55
2024/04/18 14:46:41;;;;;;;;;;;;;;;;;;23188874;25;19997;-55
2024/04/18 14:56:42;;;;;;;;;;;;;;;;;;23188512;25;19942;-59
2024/04/18 15:06:44;;;;;;;;;;;;;;;;;;23182004;25;19926;-57
2024/04/18 15:16:46;;;;;;;;;;;;;;;;;;23173381;25;19933;-56
2024/04/18 15:26:48;;;;;;;;;;;;;;;;;;23173862;25;19928;-57
2024/04/18 15:36:50;;;;;;;;;;;;;;;;;;23187485;25;19934;-57
2024/04/18 15:46:54;;;;;;;;;;;;;;;;;;23186414;25;19926;-57
2024/04/18 15:56:56;;;;;;;;;;;;;;;;;;23186198;25;19926;-56
2024/04/18 16:06:57;;;;;;;;;;;;;;;;;;23183411;25;19927;-59
2024/04/18 16:16:59;;;;;;;;;;;;;;;;;;23187141;25;19926;-62
2024/04/18 16:27:01;;;;;;;;;;;;;;;;;;23186281;25;19926;-56
2024/04/18 16:37:04;;;;;;;;;;;;;;;;;;23174977;25;19927;-57
2024/04/18 16:47:05;;;;;;;;;;;;;;;;;;23174729;25;19933;-57
2024/04/18 16:57:06;;;;;;;;;;;;;;;;;;23178802;25;19953;-57
2024/04/18 17:07:08;;;;;;;;;;;;;;;;;;23181017;25;20411;-57
2024/04/18 17:17:09;;;;;;;;;;;;;;;;;;23180443;25;19926;-56
2024/04/18 17:27:11;;;;;;;;;;;;;;;;;;23179402;25;19937;-57
2024/04/18 17:37:13;;;;;;;;;;;;;;;;;;23180097;25;19934;-57
2024/04/18 17:47:15;;;;;;;;;;;;;;;;;;23186978;25;20309;-57
2024/04/18 17:57:18;;;;;;;;;;;;;;;;;;23194884;25;19990;-58
2024/04/18 18:07:19;;;;;;;;;;;;;;;;;;23193494;25;19927;-59
2024/04/18 18:17:20;;;;;;;;;;;;;;;;;;23194018;25;19927;-60
2024/04/18 18:27:23;;;;;;;;;;;;;;;;;;23177528;25;19954;-59
2024/04/18 18:37:24;;;;;;;;;;;;;;;;;;23172295;25;19985;-59
2024/04/18 18:47:25;;;;;;;;;;;;;;;;;;23188477;25;19937;-59
2024/04/18 18:57:28;;;;;;;;;;;;;;;;;;23194853;25;19927;-59
2024/04/18 19:07:30;;;;;;;;;;;;;;;;;;23192877;25;19937;-59
2024/04/18 19:17:36;;;;;;;;;;;;;;;;;;23190227;25;19934;-58
2024/04/18 19:27:39;;;;;;;;;;;;;;;;;;23189152;25;19961;-59
2024/04/18 19:37:40;;;;;;;;;;;;;;;;;;23188211;25;19954;-59
2024/04/18 19:47:44;;;;;;;;;;;;;;;;;;23189160;25;19934;-59
2024/04/18 19:57:46;;;;;;;2.50;0.87;;;;;;;;;;23187412;25;19996;-59
2024/04/18 20:07:47;;;;;;;1.40;0.75;;;;;;;;;;23124370;25;20407;-60
2024/04/18 20:17:49;;;;;;;2.20;1.05;;;;;;;;;;23031554;25;20011;-60
2024/04/18 20:27:51;;;;;;;3.17;1.20;;;;;;;;;;23030198;25;20005;-60
2024/04/18 20:37:53;;;;;;;6.30;0.80;;;;;;;;;;23030335;25;20041;-59
2024/04/18 20:47:55;;;;;;;13.82;1.00;;;;;;;;;;23029065;25;20322;-59
2024/04/18 20:57:56;;;;;;;2.45;0.88;;;;;;;;;;23026722;25;20033;-60
2024/04/18 21:07:57;;;;;;;4.07;0.70;;;;;;;;;;23027198;25;20013;-60
2024/04/18 21:17:59;;;;;;;1.90;0.93;;;;;;;;;;23026053;25;20008;-59
2024/04/18 21:28:01;;;;;;;1.80;0.82;;;;;;;;;;23025734;25;20002;-59
2024/04/18 21:38:04;;;;;;;1.75;0.90;;;;;;;;;;23026999;25;20007;-59
2024/04/18 21:48:06;;;;;;;0.80;0.50;;;;;;;;;;23026101;25;20000;-59
2024/04/18 21:58:07;;;;;;;1.35;0.60;;;;;;;;;;23024659;25;19997;-59
2024/04/18 22:08:08;;;;;;;0.80;0.50;;;;;;;;;;23024559;25;20356;-60
2024/04/18 22:18:09;;;;;;;4.13;1.05;;;;;;;;;;23025168;25;20336;-58
2024/04/18 22:28:11;;;;;;;1.70;0.70;;;;;;;;;;23021270;25;20362;-58
2024/04/18 22:38:13;;;;;;;3.35;0.60;;;;;;;;;;23039057;25;20011;-59
2024/04/18 22:48:14;;;;;;;1.35;0.57;;;;;;;;;;23036971;25;20302;-59
2024/04/18 22:58:16;;;;;;;2.35;0.60;;;;;;;;;;23036701;25;20001;-59
2024/04/18 23:08:17;;;;;;;7.68;0.93;;;;;;;;;;23034162;25;20457;-58
2024/04/18 23:18:18;;;;;;;0.85;0.50;;;;;;;;;;23035095;25;20311;-59
2024/04/18 23:28:20;;;;;;;1.10;0.50;;;;;;;;;;23033536;25;20001;-59
2024/04/18 23:38:22;;;;;;;1.52;0.60;;;;;;;;;;23033415;25;20011;-58
2024/04/18 23:48:24;;;;;;;1.13;0.70;;;;;;;;;;23030427;25;20103;-59
2024/04/18 23:58:25;;;;;;;2.00;0.98;;;;;;;;;;23032581;25;19997;-59
